sensor_id;sensor_type;location;lat;lon;timestamp;pressure;altitude;pressure_sealevel;temperature;humidity
12775;BME280;6451;42.630;23.382;2022-11-15T00:02:27;94974.44;;;4.67;100.00
12775;BME280;6451;42.630;23.382;2022-11-15T00:04:54;95009.69;;;4.84;100.00
12775;BME280;6451;42.630;23.382;2022-11-15T00:07:22;94998.88;;;4.70;100.00
12775;BME280;6451;42.630;23.382;2022-11-15T00:09:49;95022.75;;;4.72;100.00
12775;BME280;6451;42.630;23.382;2022-11-15T00:12:17;94960.78;;;4.31;100.00
12775;BME280;6451;42.630;23.382;2022-11-15T00:14:44;95012.19;;;4.62;100.00
12775;BME280;6451;42.630;23.382;2022-11-15T00:17:10;95005.84;;;4.71;100.00
12775;BME280;6451;42.630;23.382;2022-11-15T00:19:39;95004.25;;;4.70;100.00
12775;BME280;6451;42.630;23.382;2022-11-15T00:22:05;94953.22;;;4.33;100.00
12775;BME280;6451;42.630;23.382;2022-11-15T00:24:32;95005.78;;;4.77;100.00
12775;BME280;6451;42.630;23.382;2022-11-15T00:26:59;94918.94;;;4.25;100.00
12775;BME280;6451;42.630;23.382;2022-11-15T00:29:26;94976.00;;;4.54;100.00
12775;BME280;6451;42.630;23.382;2022-11-15T00:31:53;94998.81;;;4.76;100.00
12775;BME280;6451;42.630;23.382;2022-11-15T00:34:20;94993.50;;;4.70;100.00
12775;BME280;6451;42.630;23.382;2022-11-15T00:36:48;95000.53;;;4.66;100.00
12775;BME280;6451;42.630;23.382;2022-11-15T00:39:15;94991.13;;;4.83;100.00
12775;BME280;6451;42.630;23.382;2022-11-15T00:41:42;94976.06;;;4.68;100.00
12775;BME280;6451;42.630;23.382;2022-11-15T00:44:09;94975.19;;;4.72;100.00
12775;BME280;6451;42.630;23.382;2022-11-15T00:46:36;94981.78;;;4.80;100.00
12775;BME280;6451;42.630;23.382;2022-11-15T00:49:02;94962.88;;;4.53;100.00
12775;BME280;6451;42.630;23.382;2022-11-15T00:51:29;94983.72;;;4.74;100.00
12775;BME280;6451;42.630;23.382;2022-11-15T00:53:58;94978.09;;;4.76;100.00
12775;BME280;6451;42.630;23.382;2022-11-15T00:56:25;94963.19;;;4.65;100.00
12775;BME280;6451;42.630;23.382;2022-11-15T00:58:52;94974.03;;;4.60;100.00
12775;BME280;6451;42.630;23.382;2022-11-15T01:01:19;94977.38;;;4.70;100.00
12775;BME280;6451;42.630;23.382;2022-11-15T01:03:46;94974.44;;;4.67;100.00
12775;BME280;6451;42.630;23.382;2022-11-15T01:06:14;94971.34;;;4.60;100.00
12775;BME280;6451;42.630;23.382;2022-11-15T01:08:41;94981.69;;;4.53;100.00
12775;BME280;6451;42.630;23.382;2022-11-15T01:11:11;94957.50;;;4.53;100.00
12775;BME280;6451;42.630;23.382;2022-11-15T01:13:39;94975.06;;;4.45;100.00
12775;BME280;6451;42.630;23.382;2022-11-15T01:16:07;94970.94;;;4.53;100.00
12775;BME280;6451;42.630;23.382;2022-11-15T01:18:35;94980.66;;;4.49;100.00
12775;BME280;6451;42.630;23.382;2022-11-15T01:21:05;94729.34;;;2.83;100.00
12775;BME280;6451;42.630;23.382;2022-11-15T01:23:32;94948.47;;;4.43;100.00
12775;BME280;6451;42.630;23.382;2022-11-15T01:25:59;94970.56;;;4.40;100.00
12775;BME280;6451;42.630;23.382;2022-11-15T01:28:31;94967.94;;;4.54;100.00
12775;BME280;6451;42.630;23.382;2022-11-15T01:30:58;94972.66;;;4.43;100.00
12775;BME280;6451;42.630;23.382;2022-11-15T01:33:26;94971.78;;;4.29;100.00
12775;BME280;6451;42.630;23.382;2022-11-15T01:36:20;94956.50;;;4.30;100.00
12775;BME280;6451;42.630;23.382;2022-11-15T01:38:53;94931.72;;;4.14;100.00
12775;BME280;6451;42.630;23.382;2022-11-15T01:41:22;94923.75;;;4.09;100.00
12775;BME280;6451;42.630;23.382;2022-11-15T01:43:52;94965.69;;;4.42;100.00
12775;BME280;6451;42.630;23.382;2022-11-15T01:46:26;94967.59;;;4.23;100.00
12775;BME280;6451;42.630;23.382;2022-11-15T01:48:57;94970.34;;;4.37;100.00
12775;BME280;6451;42.630;23.382;2022-11-15T01:51:28;94796.19;;;3.17;100.00
12775;BME280;6451;42.630;23.382;2022-11-15T01:54:00;94951.53;;;4.18;100.00
12775;BME280;6451;42.630;23.382;2022-11-15T01:56:30;94961.78;;;4.16;100.00
12775;BME280;6451;42.630;23.382;2022-11-15T01:59:03;94959.00;;;4.21;100.00
12775;BME280;6451;42.630;23.382;2022-11-15T02:01:32;94945.25;;;4.09;100.00
12775;BME280;6451;42.630;23.382;2022-11-15T02:04:02;94962.72;;;4.25;100.00
12775;BME280;6451;42.630;23.382;2022-11-15T02:06:30;94942.69;;;4.17;100.00
12775;BME280;6451;42.630;23.382;2022-11-15T02:08:58;94954.09;;;4.09;100.00
12775;BME280;6451;42.630;23.382;2022-11-15T02:11:26;94961.84;;;4.11;100.00
12775;BME280;6451;42.630;23.382;2022-11-15T02:13:54;94961.84;;;4.11;100.00
12775;BME280;6451;42.630;23.382;2022-11-15T02:16:29;94923.44;;;3.73;100.00
12775;BME280;6451;42.630;23.382;2022-11-15T02:19:02;94958.56;;;3.95;100.00
12775;BME280;6451;42.630;23.382;2022-11-15T02:21:42;94960.84;;;4.07;100.00
12775;BME280;6451;42.630;23.382;2022-11-15T02:24:39;94958.50;;;4.00;100.00
12775;BME280;6451;42.630;23.382;2022-11-15T02:27:42;94908.06;;;3.78;100.00
12775;BME280;6451;42.630;23.382;2022-11-15T02:30:24;94888.97;;;3.61;100.00
12775;BME280;6451;42.630;23.382;2022-11-15T02:32:56;94937.59;;;3.97;100.00
12775;BME280;6451;42.630;23.382;2022-11-15T02:35:29;94954.03;;;4.14;100.00
12775;BME280;6451;42.630;23.382;2022-11-15T02:38:04;94960.91;;;4.02;100.00
12775;BME280;6451;42.630;23.382;2022-11-15T02:40:38;94956.91;;;4.18;100.00
12775;BME280;6451;42.630;23.382;2022-11-15T02:43:10;94937.84;;;4.01;100.00
12775;BME280;6451;42.630;23.382;2022-11-15T02:46:01;94947.78;;;4.00;100.00
12775;BME280;6451;42.630;23.382;2022-11-15T02:48:31;94945.25;;;4.09;100.00
12775;BME280;6451;42.630;23.382;2022-11-15T02:50:59;94929.25;;;3.80;100.00
12775;BME280;6451;42.630;23.382;2022-11-15T02:53:28;94957.47;;;3.96;100.00
12775;BME280;6451;42.630;23.382;2022-11-15T02:55:56;94958.16;;;4.07;100.00
12775;BME280;6451;42.630;23.382;2022-11-15T03:01:22;94953.34;;;3.85;100.00
12775;BME280;6451;42.630;23.382;2022-11-15T03:04:01;94897.03;;;3.61;100.00
12775;BME280;6451;42.630;23.382;2022-11-15T03:06:35;94904.84;;;3.57;100.00
12775;BME280;6451;42.630;23.382;2022-11-15T03:09:07;94934.47;;;3.71;100.00
12775;BME280;6451;42.630;23.382;2022-11-15T03:11:39;94920.66;;;3.59;100.00
12775;BME280;6451;42.630;23.382;2022-11-15T03:14:15;94912.69;;;3.54;100.00
12775;BME280;6451;42.630;23.382;2022-11-15T03:16:50;94936.44;;;3.84;100.00
12775;BME280;6451;42.630;23.382;2022-11-15T03:19:27;94953.31;;;3.66;100.00
12775;BME280;6451;42.630;23.382;2022-11-15T03:22:00;94961.66;;;3.65;100.00
12775;BME280;6451;42.630;23.382;2022-11-15T03:24:30;94932.63;;;3.67;100.00
12775;BME280;6451;42.630;23.382;2022-11-15T03:27:01;94935.16;;;3.58;100.00
12775;BME280;6451;42.630;23.382;2022-11-15T03:29:32;94947.34;;;3.93;100.00
12775;BME280;6451;42.630;23.382;2022-11-15T03:32:06;94920.25;;;3.89;100.00
12775;BME280;6451;42.630;23.382;2022-11-15T03:34:37;94884.31;;;3.67;100.00
12775;BME280;6451;42.630;23.382;2022-11-15T03:37:07;94888.91;;;3.66;100.00
12775;BME280;6451;42.630;23.382;2022-11-15T03:39:36;94928.91;;;4.24;100.00
12775;BME280;6451;42.630;23.382;2022-11-15T03:44:55;94913.38;;;4.02;100.00
12775;BME280;6451;42.630;23.382;2022-11-15T03:47:29;94883.63;;;3.80;100.00
12775;BME280;6451;42.630;23.382;2022-11-15T03:49:59;94923.53;;;4.05;100.00
12775;BME280;6451;42.630;23.382;2022-11-15T03:52:31;94922.81;;;4.00;100.00
12775;BME280;6451;42.630;23.382;2022-11-15T03:55:01;94894.59;;;3.83;100.00
12775;BME280;6451;42.630;23.382;2022-11-15T03:57:30;94920.03;;;3.86;100.00
12775;BME280;6451;42.630;23.382;2022-11-15T03:59:57;94919.50;;;3.65;100.00
12775;BME280;6451;42.630;23.382;2022-11-15T04:02:25;94917.78;;;3.31;100.00
12775;BME280;6451;42.630;23.382;2022-11-15T04:04:53;94921.78;;;2.81;100.00
12775;BME280;6451;42.630;23.382;2022-11-15T04:07:20;94905.78;;;2.42;100.00
12775;BME280;6451;42.630;23.382;2022-11-15T04:09:47;94925.56;;;1.67;100.00
12775;BME280;6451;42.630;23.382;2022-11-15T04:12:29;94927.78;;;1.50;100.00
12775;BME280;6451;42.630;23.382;2022-11-15T04:15:01;94932.25;;;1.70;100.00
12775;BME280;6451;42.630;23.382;2022-11-15T04:17:38;94912.16;;;1.73;100.00
12775;BME280;6451;42.630;23.382;2022-11-15T04:20:08;94925.81;;;1.71;100.00
12775;BME280;6451;42.630;23.382;2022-11-15T04:22:53;94923.66;;;1.73;100.00
12775;BME280;6451;42.630;23.382;2022-11-15T04:25:39;94920.38;;;1.86;100.00
12775;BME280;6451;42.630;23.382;2022-11-15T04:28:06;94915.81;;;1.87;100.00
12775;BME280;6451;42.630;23.382;2022-11-15T04:30:33;94916.38;;;1.84;100.00
12775;BME280;6451;42.630;23.382;2022-11-15T04:33:01;94918.78;;;1.85;100.00
12775;BME280;6451;42.630;23.382;2022-11-15T04:35:29;94908.91;;;1.81;100.00
12775;BME280;6451;42.630;23.382;2022-11-15T04:37:57;94920.13;;;2.22;100.00
12775;BME280;6451;42.630;23.382;2022-11-15T04:40:25;94940.91;;;2.01;100.00
12775;BME280;6451;42.630;23.382;2022-11-15T04:42:51;94893.56;;;1.91;100.00
12775;BME280;6451;42.630;23.382;2022-11-15T04:45:18;94921.69;;;2.28;100.00
12775;BME280;6451;42.630;23.382;2022-11-15T04:47:46;94906.66;;;1.98;100.00
12775;BME280;6451;42.630;23.382;2022-11-15T04:50:15;94925.72;;;2.31;100.00
12775;BME280;6451;42.630;23.382;2022-11-15T04:52:46;94905.81;;;2.37;100.00
12775;BME280;6451;42.630;23.382;2022-11-15T04:55:16;94911.19;;;2.37;100.00
12775;BME280;6451;42.630;23.382;2022-11-15T04:57:43;94887.19;;;2.21;100.00
12775;BME280;6451;42.630;23.382;2022-11-15T05:00:12;94905.28;;;2.40;100.00
12775;BME280;6451;42.630;23.382;2022-11-15T05:02:39;94923.97;;;2.45;100.00
12775;BME280;6451;42.630;23.382;2022-11-15T05:05:25;94921.69;;;2.28;100.00
12775;BME280;6451;42.630;23.382;2022-11-15T05:07:52;94881.75;;;1.98;100.00
12775;BME280;6451;42.630;23.382;2022-11-15T05:10:19;94934.28;;;2.28;100.00
12775;BME280;6451;42.630;23.382;2022-11-15T05:12:46;94920.25;;;2.41;100.00
12775;BME280;6451;42.630;23.382;2022-11-15T05:15:13;94925.25;;;2.53;100.00
12775;BME280;6451;42.630;23.382;2022-11-15T05:17:40;94924.50;;;2.47;100.00
12775;BME280;6451;42.630;23.382;2022-11-15T05:20:08;94917.47;;;2.56;100.00
12775;BME280;6451;42.630;23.382;2022-11-15T05:22:37;94928.59;;;2.39;100.00
12775;BME280;6451;42.630;23.382;2022-11-15T05:25:05;94933.66;;;2.41;100.00
12775;BME280;6451;42.630;23.382;2022-11-15T05:27:32;94932.72;;;2.56;100.00
12775;BME280;6451;42.630;23.382;2022-11-15T05:29:59;94936.59;;;2.73;100.00
12775;BME280;6451;42.630;23.382;2022-11-15T05:32:26;94936.19;;;2.61;100.00
12775;BME280;6451;42.630;23.382;2022-11-15T05:34:54;94899.50;;;2.57;100.00
12775;BME280;6451;42.630;23.382;2022-11-15T05:37:22;94936.00;;;3.05;100.00
12775;BME280;6451;42.630;23.382;2022-11-15T05:39:50;94930.28;;;2.88;100.00
12775;BME280;6451;42.630;23.382;2022-11-15T05:42:17;94927.47;;;3.03;100.00
12775;BME280;6451;42.630;23.382;2022-11-15T05:44:48;94932.19;;;3.12;100.00
12775;BME280;6451;42.630;23.382;2022-11-15T05:47:18;94929.91;;;3.00;100.00
12775;BME280;6451;42.630;23.382;2022-11-15T05:49:47;94921.81;;;3.29;100.00
12775;BME280;6451;42.630;23.382;2022-11-15T05:52:19;94930.72;;;3.48;100.00
12775;BME280;6451;42.630;23.382;2022-11-15T05:54:49;94892.56;;;3.09;100.00
12775;BME280;6451;42.630;23.382;2022-11-15T05:57:17;94921.41;;;3.41;100.00
12775;BME280;6451;42.630;23.382;2022-11-15T05:59:44;94917.25;;;3.53;100.00
12775;BME280;6451;42.630;23.382;2022-11-15T06:02:11;94936.16;;;3.86;100.00
12775;BME280;6451;42.630;23.382;2022-11-15T06:04:38;94918.50;;;3.80;100.00
12775;BME280;6451;42.630;23.382;2022-11-15T06:07:05;94918.31;;;3.52;100.00
12775;BME280;6451;42.630;23.382;2022-11-15T06:09:32;94908.81;;;3.60;100.00
12775;BME280;6451;42.630;23.382;2022-11-15T06:12:01;94924.97;;;3.79;100.00
12775;BME280;6451;42.630;23.382;2022-11-15T06:14:28;94923.88;;;3.61;100.00
12775;BME280;6451;42.630;23.382;2022-11-15T06:16:55;94933.16;;;3.69;100.00
12775;BME280;6451;42.630;23.382;2022-11-15T06:19:22;94922.78;;;3.62;100.00
12775;BME280;6451;42.630;23.382;2022-11-15T06:21:50;94935.59;;;3.65;100.00
12775;BME280;6451;42.630;23.382;2022-11-15T06:24:17;94932.28;;;3.73;100.00
12775;BME280;6451;42.630;23.382;2022-11-15T06:26:44;94931.88;;;4.04;100.00
12775;BME280;6451;42.630;23.382;2022-11-15T06:29:13;94942.53;;;4.28;100.00
12775;BME280;6451;42.630;23.382;2022-11-15T06:31:40;94927.50;;;4.45;100.00
12775;BME280;6451;42.630;23.382;2022-11-15T06:34:07;94930.78;;;4.24;100.00
12775;BME280;6451;42.630;23.382;2022-11-15T06:36:36;94879.50;;;4.39;100.00
12775;BME280;6451;42.630;23.382;2022-11-15T06:39:04;94901.13;;;4.47;100.00
12775;BME280;6451;42.630;23.382;2022-11-15T06:41:33;94918.78;;;4.54;100.00
12775;BME280;6451;42.630;23.382;2022-11-15T06:44:03;94922.28;;;4.35;100.00
12775;BME280;6451;42.630;23.382;2022-11-15T06:46:31;94909.66;;;4.17;100.00
12775;BME280;6451;42.630;23.382;2022-11-15T06:48:58;94922.69;;;4.42;100.00
12775;BME280;6451;42.630;23.382;2022-11-15T06:51:25;94912.47;;;4.77;100.00
12775;BME280;6451;42.630;23.382;2022-11-15T06:53:51;94923.91;;;4.83;100.00
12775;BME280;6451;42.630;23.382;2022-11-15T06:56:18;94913.81;;;4.61;100.00
12775;BME280;6451;42.630;23.382;2022-11-15T06:58:45;94917.63;;;4.73;100.00
12775;BME280;6451;42.630;23.382;2022-11-15T07:01:12;94899.38;;;4.57;100.00
12775;BME280;6451;42.630;23.382;2022-11-15T07:03:42;94901.06;;;4.66;100.00
12775;BME280;6451;42.630;23.382;2022-11-15T07:06:09;94875.97;;;4.57;100.00
12775;BME280;6451;42.630;23.382;2022-11-15T07:08:36;94905.94;;;4.97;100.00
12775;BME280;6451;42.630;23.382;2022-11-15T07:11:04;94903.13;;;4.88;100.00
12775;BME280;6451;42.630;23.382;2022-11-15T07:13:32;94906.19;;;4.68;100.00
12775;BME280;6451;42.630;23.382;2022-11-15T07:16:01;94906.06;;;4.73;100.00
12775;BME280;6451;42.630;23.382;2022-11-15T07:18:28;94882.94;;;4.58;100.00
12775;BME280;6451;42.630;23.382;2022-11-15T07:21:00;94899.72;;;4.69;100.00
12775;BME280;6451;42.630;23.382;2022-11-15T07:23:27;94887.16;;;4.64;100.00
12775;BME280;6451;42.630;23.382;2022-11-15T07:25:56;94902.31;;;4.41;100.00
12775;BME280;6451;42.630;23.382;2022-11-15T07:28:23;94901.81;;;4.39;100.00
12775;BME280;6451;42.630;23.382;2022-11-15T07:30:50;94891.78;;;4.45;100.00
12775;BME280;6451;42.630;23.382;2022-11-15T07:33:17;94892.59;;;4.59;100.00
12775;BME280;6451;42.630;23.382;2022-11-15T07:35:45;94907.94;;;4.91;100.00
12775;BME280;6451;42.630;23.382;2022-11-15T07:38:16;94900.63;;;4.78;100.00
12775;BME280;6451;42.630;23.382;2022-11-15T07:40:45;94910.47;;;4.83;100.00
12775;BME280;6451;42.630;23.382;2022-11-15T07:43:12;94907.66;;;4.74;100.00
12775;BME280;6451;42.630;23.382;2022-11-15T07:45:43;94898.50;;;4.75;100.00
12775;BME280;6451;42.630;23.382;2022-11-15T07:48:10;94895.25;;;4.78;100.00
12775;BME280;6451;42.630;23.382;2022-11-15T07:50:40;94908.66;;;4.64;100.00
12775;BME280;6451;42.630;23.382;2022-11-15T07:53:08;94891.81;;;4.59;100.00
12775;BME280;6451;42.630;23.382;2022-11-15T07:55:39;94904.88;;;4.65;100.00
12775;BME280;6451;42.630;23.382;2022-11-15T07:58:07;94898.31;;;4.71;100.00
12775;BME280;6451;42.630;23.382;2022-11-15T08:00:35;94890.84;;;4.82;100.00
12775;BME280;6451;42.630;23.382;2022-11-15T08:03:03;94897.38;;;4.95;100.00
12775;BME280;6451;42.630;23.382;2022-11-15T08:05:31;94904.53;;;5.13;100.00
12775;BME280;6451;42.630;23.382;2022-11-15T08:07:59;94869.56;;;4.86;100.00
12775;BME280;6451;42.630;23.382;2022-11-15T08:10:27;94898.25;;;4.90;100.00
12775;BME280;6451;42.630;23.382;2022-11-15T08:13:00;94882.00;;;4.82;100.00
12775;BME280;6451;42.630;23.382;2022-11-15T08:15:28;94883.34;;;5.12;100.00
12775;BME280;6451;42.630;23.382;2022-11-15T08:17:56;94892.59;;;5.19;100.00
12775;BME280;6451;42.630;23.382;2022-11-15T08:20:24;94897.31;;;5.14;100.00
12775;BME280;6451;42.630;23.382;2022-11-15T08:22:51;94894.09;;;5.25;100.00
12775;BME280;6451;42.630;23.382;2022-11-15T08:25:19;94891.41;;;5.39;100.00
12775;BME280;6451;42.630;23.382;2022-11-15T08:27:46;94881.94;;;5.55;100.00
12775;BME280;6451;42.630;23.382;2022-11-15T08:30:15;94865.31;;;5.26;100.00
12775;BME280;6451;42.630;23.382;2022-11-15T08:32:42;94882.53;;;5.25;100.00
12775;BME280;6451;42.630;23.382;2022-11-15T08:35:10;94862.41;;;5.09;100.00
12775;BME280;6451;42.630;23.382;2022-11-15T08:37:37;94850.75;;;4.86;100.00
12775;BME280;6451;42.630;23.382;2022-11-15T08:40:05;94864.09;;;5.05;100.00
12775;BME280;6451;42.630;23.382;2022-11-15T08:42:32;94880.34;;;5.27;100.00
12775;BME280;6451;42.630;23.382;2022-11-15T08:44:59;94883.25;;;5.30;100.00
12775;BME280;6451;42.630;23.382;2022-11-15T08:47:27;94874.09;;;5.45;100.00
12775;BME280;6451;42.630;23.382;2022-11-15T08:49:54;94866.88;;;5.68;100.00
12775;BME280;6451;42.630;23.382;2022-11-15T08:52:21;94879.31;;;5.78;100.00
12775;BME280;6451;42.630;23.382;2022-11-15T08:54:49;94876.50;;;5.97;100.00
12775;BME280;6451;42.630;23.382;2022-11-15T08:57:16;94864.13;;;5.96;100.00
12775;BME280;6451;42.630;23.382;2022-11-15T08:59:43;94853.41;;;5.68;100.00
12775;BME280;6451;42.630;23.382;2022-11-15T09:02:12;94809.22;;;5.69;100.00
12775;BME280;6451;42.630;23.382;2022-11-15T09:04:42;94807.53;;;5.59;100.00
12775;BME280;6451;42.630;23.382;2022-11-15T09:07:10;94833.94;;;5.71;100.00
12775;BME280;6451;42.630;23.382;2022-11-15T09:09:37;94844.97;;;5.97;100.00
12775;BME280;6451;42.630;23.382;2022-11-15T09:12:06;94830.06;;;5.77;100.00
12775;BME280;6451;42.630;23.382;2022-11-15T09:14:33;94840.66;;;6.10;100.00
12775;BME280;6451;42.630;23.382;2022-11-15T09:17:00;94833.13;;;5.98;100.00
12775;BME280;6451;42.630;23.382;2022-11-15T09:19:28;94805.34;;;5.75;100.00
12775;BME280;6451;42.630;23.382;2022-11-15T09:21:56;94813.38;;;6.11;100.00
12775;BME280;6451;42.630;23.382;2022-11-15T09:24:23;94827.66;;;6.34;100.00
12775;BME280;6451;42.630;23.382;2022-11-15T09:26:50;94813.16;;;5.99;100.00
12775;BME280;6451;42.630;23.382;2022-11-15T09:29:17;94828.75;;;5.75;100.00
12775;BME280;6451;42.630;23.382;2022-11-15T09:31:46;94818.34;;;5.96;100.00
12775;BME280;6451;42.630;23.382;2022-11-15T09:34:14;94816.09;;;6.11;100.00
12775;BME280;6451;42.630;23.382;2022-11-15T09:36:40;94824.78;;;6.31;100.00
12775;BME280;6451;42.630;23.382;2022-11-15T09:39:09;94813.00;;;6.49;100.00
12775;BME280;6451;42.630;23.382;2022-11-15T09:41:59;94780.41;;;6.06;100.00
12775;BME280;6451;42.630;23.382;2022-11-15T09:44:59;94797.81;;;6.53;100.00
12775;BME280;6451;42.630;23.382;2022-11-15T09:48:10;94788.47;;;6.59;100.00
12775;BME280;6451;42.630;23.382;2022-11-15T09:50:43;94793.75;;;7.04;100.00
12775;BME280;6451;42.630;23.382;2022-11-15T09:53:22;94783.19;;;7.25;100.00
12775;BME280;6451;42.630;23.382;2022-11-15T09:56:01;94784.25;;;7.07;100.00
12775;BME280;6451;42.630;23.382;2022-11-15T09:58:33;94782.69;;;7.14;100.00
12775;BME280;6451;42.630;23.382;2022-11-15T10:01:06;94661.22;;;6.40;100.00
12775;BME280;6451;42.630;23.382;2022-11-15T10:03:38;94762.34;;;7.08;100.00
12775;BME280;6451;42.630;23.382;2022-11-15T10:06:13;94716.06;;;6.75;100.00
12775;BME280;6451;42.630;23.382;2022-11-15T10:08:55;94719.28;;;6.46;100.00
12775;BME280;6451;42.630;23.382;2022-11-15T10:11:27;94769.03;;;6.71;100.00
12775;BME280;6451;42.630;23.382;2022-11-15T10:13:57;94767.41;;;6.61;100.00
12775;BME280;6451;42.630;23.382;2022-11-15T10:16:44;94758.22;;;6.62;100.00
12775;BME280;6451;42.630;23.382;2022-11-15T10:19:23;94757.03;;;6.86;100.00
12775;BME280;6451;42.630;23.382;2022-11-15T10:22:00;94744.31;;;6.78;100.00
12775;BME280;6451;42.630;23.382;2022-11-15T10:24:38;94749.38;;;6.79;100.00
12775;BME280;6451;42.630;23.382;2022-11-15T10:27:11;94748.03;;;6.99;100.00
12775;BME280;6451;42.630;23.382;2022-11-15T10:29:43;94747.69;;;6.92;100.00
12775;BME280;6451;42.630;23.382;2022-11-15T10:32:11;94741.41;;;7.14;100.00
12775;BME280;6451;42.630;23.382;2022-11-15T10:34:40;94721.41;;;7.15;100.00
12775;BME280;6451;42.630;23.382;2022-11-15T10:37:09;94707.25;;;6.92;100.00
12775;BME280;6451;42.630;23.382;2022-11-15T10:39:37;94687.56;;;7.00;100.00
12775;BME280;6451;42.630;23.382;2022-11-15T10:42:28;94667.06;;;6.82;100.00
12775;BME280;6451;42.630;23.382;2022-11-15T10:44:55;94712.81;;;7.04;100.00
12775;BME280;6451;42.630;23.382;2022-11-15T10:47:25;94714.09;;;7.15;100.00
12775;BME280;6451;42.630;23.382;2022-11-15T10:49:58;94708.53;;;7.20;100.00
12775;BME280;6451;42.630;23.382;2022-11-15T10:52:25;94710.75;;;7.01;100.00
12775;BME280;6451;42.630;23.382;2022-11-15T10:54:57;94705.84;;;7.12;100.00
12775;BME280;6451;42.630;23.382;2022-11-15T10:57:30;94674.66;;;6.80;100.00
12775;BME280;6451;42.630;23.382;2022-11-15T11:00:00;94677.22;;;6.85;100.00
12775;BME280;6451;42.630;23.382;2022-11-15T11:02:30;94678.56;;;7.13;100.00
12775;BME280;6451;42.630;23.382;2022-11-15T11:04:58;94654.53;;;6.77;100.00
12775;BME280;6451;42.630;23.382;2022-11-15T11:07:27;94680.09;;;6.97;100.00
12775;BME280;6451;42.630;23.382;2022-11-15T11:09:58;94664.44;;;7.25;100.00
12775;BME280;6451;42.630;23.382;2022-11-15T11:12:30;94591.69;;;6.68;100.00
12775;BME280;6451;42.630;23.382;2022-11-15T11:14:59;94469.69;;;6.19;100.00
12775;BME280;6451;42.630;23.382;2022-11-15T11:17:34;94662.81;;;7.50;100.00
12775;BME280;6451;42.630;23.382;2022-11-15T11:20:09;94490.31;;;6.32;100.00
12775;BME280;6451;42.630;23.382;2022-11-15T11:22:42;94649.31;;;7.59;100.00
12775;BME280;6451;42.630;23.382;2022-11-15T11:25:23;94649.34;;;7.41;100.00
12775;BME280;6451;42.630;23.382;2022-11-15T11:30:58;94619.97;;;7.14;100.00
12775;BME280;6451;42.630;23.382;2022-11-15T11:33:31;94628.53;;;7.33;100.00
12775;BME280;6451;42.630;23.382;2022-11-15T11:36:06;94566.31;;;6.95;100.00
12775;BME280;6451;42.630;23.382;2022-11-15T11:38:47;94596.94;;;7.16;100.00
12775;BME280;6451;42.630;23.382;2022-11-15T11:41:27;94616.47;;;7.39;100.00
12775;BME280;6451;42.630;23.382;2022-11-15T11:44:10;94610.13;;;7.52;100.00
12775;BME280;6451;42.630;23.382;2022-11-15T11:46:55;94618.38;;;7.39;100.00
12775;BME280;6451;42.630;23.382;2022-11-15T11:49:28;94582.19;;;7.31;100.00
12775;BME280;6451;42.630;23.382;2022-11-15T11:52:03;94598.19;;;7.53;100.00
12775;BME280;6451;42.630;23.382;2022-11-15T11:54:37;94533.94;;;7.04;100.00
12775;BME280;6451;42.630;23.382;2022-11-15T11:57:10;94587.50;;;7.66;100.00
12775;BME280;6451;42.630;23.382;2022-11-15T11:59:43;94601.03;;;7.57;100.00
12775;BME280;6451;42.630;23.382;2022-11-15T12:02:16;94585.31;;;7.68;100.00
12775;BME280;6451;42.630;23.382;2022-11-15T12:04:48;94579.84;;;7.85;100.00
12775;BME280;6451;42.630;23.382;2022-11-15T12:07:21;94571.47;;;7.69;100.00
12775;BME280;6451;42.630;23.382;2022-11-15T12:09:54;94568.41;;;7.79;100.00
12775;BME280;6451;42.630;23.382;2022-11-15T12:12:29;94561.88;;;7.89;100.00
12775;BME280;6451;42.630;23.382;2022-11-15T12:15:02;94556.06;;;7.70;100.00
12775;BME280;6451;42.630;23.382;2022-11-15T12:17:30;94544.66;;;8.02;100.00
12775;BME280;6451;42.630;23.382;2022-11-15T12:20:04;94540.75;;;7.91;100.00
12775;BME280;6451;42.630;23.382;2022-11-15T12:22:41;94552.47;;;7.95;100.00
12775;BME280;6451;42.630;23.382;2022-11-15T12:25:17;94560.19;;;8.14;100.00
12775;BME280;6451;42.630;23.382;2022-11-15T12:27:48;94544.06;;;7.88;100.00
12775;BME280;6451;42.630;23.382;2022-11-15T12:30:20;94534.72;;;7.86;100.00
12775;BME280;6451;42.630;23.382;2022-11-15T12:32:51;94527.97;;;8.00;100.00
12775;BME280;6451;42.630;23.382;2022-11-15T12:35:29;94540.38;;;8.01;100.00
12775;BME280;6451;42.630;23.382;2022-11-15T12:37:57;94536.03;;;8.09;100.00
12775;BME280;6451;42.630;23.382;2022-11-15T12:40:26;94510.59;;;8.10;100.00
12775;BME280;6451;42.630;23.382;2022-11-15T12:45:44;94520.06;;;8.25;100.00
12775;BME280;6451;42.630;23.382;2022-11-15T12:57:49;94507.75;;;8.66;100.00
12775;BME280;6451;42.630;23.382;2022-11-15T13:00:45;94510.31;;;8.62;100.00
12775;BME280;6451;42.630;23.382;2022-11-15T13:03:33;94507.53;;;8.50;100.00
12775;BME280;6451;42.630;23.382;2022-11-15T13:06:03;94494.63;;;8.55;100.00
12775;BME280;6451;42.630;23.382;2022-11-15T13:08:48;94476.44;;;8.35;100.00
12775;BME280;6451;42.630;23.382;2022-11-15T13:11:45;94503.34;;;8.61;100.00
12775;BME280;6451;42.630;23.382;2022-11-15T13:14:47;94495.75;;;8.75;100.00
12775;BME280;6451;42.630;23.382;2022-11-15T13:17:34;94488.22;;;8.60;100.00
12775;BME280;6451;42.630;23.382;2022-11-15T13:20:18;94484.53;;;8.64;100.00
12775;BME280;6451;42.630;23.382;2022-11-15T13:22:47;94488.09;;;8.56;100.00
12775;BME280;6451;42.630;23.382;2022-11-15T13:25:19;94484.34;;;8.70;100.00
12775;BME280;6451;42.630;23.382;2022-11-15T13:27:49;94361.09;;;7.97;100.00
12775;BME280;6451;42.630;23.382;2022-11-15T13:30:20;94453.44;;;8.50;100.00
12775;BME280;6451;42.630;23.382;2022-11-15T13:32:50;94470.91;;;8.73;100.00
12775;BME280;6451;42.630;23.382;2022-11-15T13:35:21;94457.09;;;8.75;100.00
12775;BME280;6451;42.630;23.382;2022-11-15T13:37:49;94476.22;;;8.70;100.00
12775;BME280;6451;42.630;23.382;2022-11-15T13:40:22;94452.91;;;8.77;100.00
12775;BME280;6451;42.630;23.382;2022-11-15T13:42:50;94413.03;;;8.53;100.00